RYR615 LEVC-LEIB

Flight info

Callsign RYR615
Flight time 0h 28m
Altitude 14000
Route ODSEN Z224 VARUT
Aircraft B38M/M-SADE3FGILRWY/SB1

Departure

Time 2026-05-07 17:20
Airport Valencia Airport (LEVC)

Arrival

Time 2026-05-07 17:49
Airport Ibiza Airport (LEIB)
Time Latitude Longitude Altitude Speed Heading
2026-05-07 16:59 39.49355 -0.47809 211 ft 0 kts 26°
2026-05-07 17:11 39.49352 -0.47810 173 ft 2 kts 26°
2026-05-07 17:11 39.49342 -0.47818 206 ft 2 kts 26°
2026-05-07 17:11 39.49325 -0.47824 214 ft 3 kts 353°
2026-05-07 17:11 39.49310 -0.47815 210 ft 3 kts 308°
2026-05-07 17:12 39.49301 -0.47796 211 ft 1 kts 296°
2026-05-07 17:12 39.49299 -0.47790 209 ft 0 kts 296°
2026-05-07 17:14 39.49300 -0.47793 210 ft 0 kts 296°
2026-05-07 17:14 39.49301 -0.47800 212 ft 4 kts 278°
2026-05-07 17:14 39.49295 -0.47854 213 ft 7 kts 256°
2026-05-07 17:14 39.49276 -0.47894 212 ft 4 kts 224°
2026-05-07 17:15 39.49234 -0.47948 211 ft 15 kts 230°
2026-05-07 17:15 39.49194 -0.48065 209 ft 14 kts 252°
2026-05-07 17:15 39.49156 -0.48205 209 ft 19 kts 280°
2026-05-07 17:15 39.49218 -0.48396 215 ft 25 kts 298°
2026-05-07 17:16 39.49295 -0.48607 224 ft 27 kts 303°
2026-05-07 17:16 39.49388 -0.48838 223 ft 31 kts 297°
2026-05-07 17:16 39.49490 -0.49106 225 ft 35 kts 298°
2026-05-07 17:16 39.49595 -0.49379 229 ft 30 kts 296°
2026-05-07 17:17 39.49667 -0.49572 236 ft 27 kts 296°
2026-05-07 17:18 39.49686 -0.49621 237 ft 22 kts 295°
2026-05-07 17:18 39.49758 -0.49810 242 ft 24 kts 295°
2026-05-07 17:18 39.49773 -0.49980 248 ft 15 kts 217°
2026-05-07 17:19 39.49672 -0.50009 249 ft 18 kts 173°
2026-05-07 17:19 39.49604 -0.49933 245 ft 15 kts 120°
2026-05-07 17:19 39.49556 -0.49793 241 ft 6 kts 115°
2026-05-07 17:19 39.49524 -0.49710 237 ft 43 kts 117°
2026-05-07 17:20 39.49260 -0.49009 227 ft 126 kts 116°
2026-05-07 17:20 39.48772 -0.47729 261 ft 184 kts 114°
2026-05-07 17:20 39.48135 -0.46168 845 ft 205 kts 117°
2026-05-07 17:20 39.47458 -0.44541 1744 ft 213 kts 117°
2026-05-07 17:21 39.46617 -0.42874 2382 ft 230 kts 132°
2026-05-07 17:21 39.45316 -0.41419 2809 ft 262 kts 141°
2026-05-07 17:21 39.44052 -0.39927 4346 ft 246 kts 127°
2026-05-07 17:21 39.43093 -0.38023 5163 ft 261 kts 122°
2026-05-07 17:22 39.42091 -0.36038 6177 ft 264 kts 122°
2026-05-07 17:22 39.41065 -0.34044 7206 ft 268 kts 123°
2026-05-07 17:22 39.40024 -0.32009 8147 ft 275 kts 119°
2026-05-07 17:22 39.39112 -0.29803 9142 ft 281 kts 116°
2026-05-07 17:23 39.38192 -0.27543 10061 ft 288 kts 116°
2026-05-07 17:23 39.37228 -0.25192 10678 ft 305 kts 117°
2026-05-07 17:23 39.36201 -0.22708 11278 ft 320 kts 117°
2026-05-07 17:23 39.35133 -0.20127 12005 ft 329 kts 118°
2026-05-07 17:24 39.34048 -0.17513 12972 ft 331 kts 119°
2026-05-07 17:24 39.32952 -0.14876 13744 ft 334 kts 119°
2026-05-07 17:24 39.31857 -0.12239 13928 ft 333 kts 119°
2026-05-07 17:24 39.30780 -0.09648 13957 ft 332 kts 119°
2026-05-07 17:25 39.29688 -0.07026 13945 ft 331 kts 119°
2026-05-07 17:25 39.28598 -0.04409 13934 ft 331 kts 119°
2026-05-07 17:25 39.27509 -0.01799 13934 ft 331 kts 119°
2026-05-07 17:25 39.26420 0.00812 13946 ft 330 kts 119°
2026-05-07 17:26 39.25334 0.03413 13950 ft 329 kts 119°
2026-05-07 17:26 39.24248 0.06009 13939 ft 328 kts 119°
2026-05-07 17:26 39.23164 0.08598 13946 ft 328 kts 119°
2026-05-07 17:26 39.22079 0.11189 13946 ft 328 kts 119°
2026-05-07 17:27 39.20994 0.13777 13937 ft 328 kts 119°
2026-05-07 17:27 39.19908 0.16365 13945 ft 328 kts 119°
2026-05-07 17:27 39.18819 0.18959 13945 ft 328 kts 119°
2026-05-07 17:27 39.17732 0.21545 13948 ft 328 kts 119°
2026-05-07 17:28 39.16644 0.24133 13941 ft 328 kts 119°
2026-05-07 17:28 39.15554 0.26721 13940 ft 328 kts 119°
2026-05-07 17:28 39.14465 0.29307 13940 ft 328 kts 119°
2026-05-07 17:28 39.13375 0.31891 13944 ft 328 kts 119°
2026-05-07 17:29 39.12285 0.34475 13944 ft 328 kts 119°
2026-05-07 17:29 39.11193 0.37057 13945 ft 328 kts 120°
2026-05-07 17:29 39.10105 0.39633 13957 ft 327 kts 120°
2026-05-07 17:29 39.09025 0.42187 13948 ft 323 kts 120°
2026-05-07 17:30 39.07956 0.44715 13947 ft 322 kts 120°
2026-05-07 17:30 39.06883 0.47248 13945 ft 322 kts 120°
2026-05-07 17:30 39.06045 0.49912 13919 ft 320 kts 106°
2026-05-07 17:30 39.05468 0.52651 13698 ft 314 kts 107°
2026-05-07 17:31 39.04890 0.55334 13426 ft 309 kts 107°
2026-05-07 17:31 39.04317 0.57974 13169 ft 304 kts 107°
2026-05-07 17:31 39.03758 0.60538 12907 ft 300 kts 106°
2026-05-07 17:31 39.03195 0.63110 12644 ft 297 kts 106°
2026-05-07 17:32 39.02637 0.65657 12382 ft 295 kts 106°
2026-05-07 17:32 39.01998 0.68148 12122 ft 293 kts 115°
2026-05-07 17:32 39.01053 0.70456 11876 ft 291 kts 118°
2026-05-07 17:32 39.00413 0.72005 11708 ft 290 kts 117°
2026-05-07 17:33 38.99169 0.75035 11376 ft 289 kts 117°
2026-05-07 17:33 38.98238 0.77308 11133 ft 286 kts 118°
2026-05-07 17:33 38.97321 0.79551 10891 ft 281 kts 118°
2026-05-07 17:33 38.96419 0.81757 10642 ft 277 kts 117°
2026-05-07 17:34 38.95531 0.83932 10410 ft 273 kts 117°
2026-05-07 17:34 38.94654 0.86077 10176 ft 269 kts 117°
2026-05-07 17:34 38.93789 0.88191 9935 ft 265 kts 117°
2026-05-07 17:34 38.93212 0.89601 9772 ft 263 kts 117°
2026-05-07 17:35 38.92366 0.91668 9502 ft 260 kts 116°
2026-05-07 17:35 38.91542 0.93682 9250 ft 256 kts 116°
2026-05-07 17:35 38.90704 0.95722 8979 ft 254 kts 116°
2026-05-07 17:35 38.89754 0.97616 8705 ft 254 kts 134°
2026-05-07 17:36 38.88294 0.98875 8451 ft 253 kts 151°
2026-05-07 17:36 38.86761 0.99954 8201 ft 251 kts 151°
2026-05-07 17:36 38.85250 1.00995 7951 ft 248 kts 154°
2026-05-07 17:36 38.83585 1.01431 7659 ft 247 kts 186°
2026-05-07 17:37 38.81998 1.00693 7389 ft 243 kts 216°
2026-05-07 17:37 38.80906 0.99103 7106 ft 237 kts 241°
2026-05-07 17:37 38.80105 0.97246 6883 ft 239 kts 242°
2026-05-07 17:37 38.79243 0.95412 6645 ft 242 kts 230°
2026-05-07 17:38 38.78059 0.93929 6459 ft 234 kts 223°
2026-05-07 17:38 38.76873 0.92538 6187 ft 227 kts 223°
2026-05-07 17:38 38.75701 0.91227 5894 ft 220 kts 213°
2026-05-07 17:38 38.74284 0.90665 5570 ft 212 kts 178°
2026-05-07 17:39 38.72889 0.91126 5284 ft 209 kts 151°
2026-05-07 17:39 38.71598 0.91947 5067 ft 205 kts 150°
2026-05-07 17:39 38.70549 0.93104 4798 ft 197 kts 118°
2026-05-07 17:39 38.70191 0.94720 4527 ft 184 kts 84°
2026-05-07 17:40 38.70517 0.96219 4313 ft 171 kts 65°
2026-05-07 17:40 38.70999 0.97601 4091 ft 169 kts 62°
2026-05-07 17:40 38.71503 0.98957 3855 ft 168 kts 61°
2026-05-07 17:40 38.72022 1.00297 3601 ft 168 kts 61°
2026-05-07 17:41 38.72550 1.01627 3388 ft 167 kts 60°
2026-05-07 17:41 38.73081 1.02947 3154 ft 166 kts 60°
2026-05-07 17:41 38.73609 1.04246 3035 ft 164 kts 60°
2026-05-07 17:41 38.74138 1.05539 2989 ft 164 kts 60°
2026-05-07 17:42 38.74671 1.06836 3015 ft 164 kts 60°
2026-05-07 17:42 38.75206 1.08131 3023 ft 165 kts 60°
2026-05-07 17:42 38.75739 1.09423 3032 ft 164 kts 60°
2026-05-07 17:42 38.76273 1.10713 3009 ft 165 kts 60°
2026-05-07 17:43 38.76813 1.12017 3022 ft 166 kts 59°
2026-05-07 17:43 38.77352 1.13318 3024 ft 165 kts 59°
2026-05-07 17:43 38.77891 1.14618 3027 ft 165 kts 60°
2026-05-07 17:43 38.78431 1.15926 2910 ft 167 kts 58°
2026-05-07 17:44 38.78974 1.17235 2696 ft 165 kts 58°
2026-05-07 17:44 38.79505 1.18517 2469 ft 159 kts 57°
2026-05-07 17:44 38.80004 1.19722 2268 ft 148 kts 57°
2026-05-07 17:44 38.80470 1.20850 2081 ft 140 kts 57°
2026-05-07 17:45 38.80917 1.21928 2018 ft 136 kts 57°
2026-05-07 17:45 38.81361 1.23000 2049 ft 136 kts 57°
2026-05-07 17:45 38.81806 1.24075 1967 ft 137 kts 57°
2026-05-07 17:45 38.82248 1.25143 1814 ft 135 kts 58°
2026-05-07 17:46 38.82689 1.26210 1678 ft 135 kts 57°
2026-05-07 17:46 38.83126 1.27265 1495 ft 133 kts 58°
2026-05-07 17:46 38.83554 1.28300 1323 ft 133 kts 58°
2026-05-07 17:46 38.83988 1.29350 1165 ft 134 kts 57°
2026-05-07 17:47 38.84426 1.30404 977 ft 134 kts 57°
2026-05-07 17:47 38.84870 1.31455 831 ft 134 kts 59°
2026-05-07 17:47 38.85302 1.32518 657 ft 133 kts 60°
2026-05-07 17:47 38.85726 1.33561 471 ft 134 kts 58°
2026-05-07 17:48 38.86168 1.34589 294 ft 128 kts 59°
2026-05-07 17:48 38.86572 1.35588 106 ft 126 kts 60°
2026-05-07 17:48 38.86973 1.36558 32 ft 113 kts 64°
2026-05-07 17:48 38.87276 1.37295 32 ft 66 kts 61°
2026-05-07 17:49 38.87423 1.37637 30 ft 34 kts 62°
2026-05-07 17:49 38.87590 1.37859 32 ft 33 kts 30°
2026-05-07 17:49 38.87694 1.37836 32 ft 13 kts 227°
2026-05-07 17:49 38.87633 1.37704 32 ft 24 kts 243°
2026-05-07 17:50 38.87633 1.37514 31 ft 17 kts 338°
2026-05-07 17:50 38.87678 1.37498 31 ft 5 kts 353°
2026-05-07 17:50 38.87744 1.37505 31 ft 10 kts 44°
2026-05-07 17:50 38.87751 1.37521 31 ft 0 kts 67°
2026-05-07 17:51 38.87751 1.37522 31 ft 0 kts 69°